Time;durP1;ratioP1;P1;durP2;ratioP2;P2;SDS_P1;SDS_P2;PMS_P1;PMS_P2;Temp;Humidity;BMP_temperature;BMP_pressure;BME280_temperature;BME280_humidity;BME280_pressure;Samples;Min_cycle;Max_cycle;Signal;HPM_P1;HPM_P2
2024/01/02 00:02:03;;;;;;;5.70;3.50;;;;;;;4.96;100.00;98268.02;109365;1253;58965;-74
2024/01/02 00:04:29;;;;;;;10.60;4.90;;;;;;;4.96;100.00;98273.80;109374;1253;59428;-74
2024/01/02 00:06:56;;;;;;;8.20;4.00;;;;;;;4.97;100.00;98274.98;109384;1253;65975;-75
2024/01/02 00:09:22;;;;;;;9.60;4.90;;;;;;;4.97;100.00;98274.63;109372;1252;60229;-75
2024/01/02 00:11:49;;;;;;;7.50;3.90;;;;;;;4.99;100.00;98271.37;109341;1253;65385;-75
2024/01/02 00:14:15;;;;;;;8.70;4.00;;;;;;;5.00;100.00;98278.00;109356;1252;59275;-76
2024/01/02 00:16:42;;;;;;;8.20;3.80;;;;;;;5.00;100.00;98279.96;108351;1252;1002376;-76
2024/01/02 00:19:09;;;;;;;7.30;4.20;;;;;;;4.99;100.00;98281.08;109272;1252;67177;-75
2024/01/02 00:21:35;;;;;;;7.50;3.70;;;;;;;4.99;100.00;98278.26;109371;1252;61060;-75
2024/01/02 00:24:02;;;;;;;7.50;4.00;;;;;;;4.99;100.00;98279.64;109363;1252;64683;-75
2024/01/02 00:26:29;;;;;;;10.40;3.70;;;;;;;4.99;100.00;98280.86;109373;1253;59413;-75
2024/01/02 00:28:56;;;;;;;5.80;3.50;;;;;;;5.00;100.00;98280.11;109314;1252;59067;-76
2024/01/02 00:31:23;;;;;;;10.80;3.70;;;;;;;5.00;100.00;98280.11;109366;1252;67158;-75
2024/01/02 00:33:49;;;;;;;8.40;3.60;;;;;;;5.00;100.00;98281.67;109354;1252;60117;-75
2024/01/02 00:36:16;;;;;;;8.00;4.00;;;;;;;5.01;100.00;98279.34;109327;1252;65093;-76
2024/01/02 00:38:42;;;;;;;7.70;3.70;;;;;;;5.02;100.00;98290.55;109383;1252;59289;-75
2024/01/02 00:41:09;;;;;;;8.00;3.80;;;;;;;5.02;100.00;98289.52;109110;1252;59023;-75
2024/01/02 00:43:36;;;;;;;10.20;4.50;;;;;;;5.00;100.00;98289.08;109296;1252;64735;-75
2024/01/02 00:46:02;;;;;;;7.40;3.30;;;;;;;4.99;100.00;98294.60;109377;1253;60033;-75
2024/01/02 00:48:30;;;;;;;8.30;4.00;;;;;;;5.00;100.00;98293.16;109347;1253;65049;-75
2024/01/02 00:50:56;;;;;;;8.10;4.40;;;;;;;4.99;100.00;98292.11;109359;1253;59263;-76
2024/01/02 00:53:23;;;;;;;5.90;2.90;;;;;;;4.99;100.00;98293.55;109356;1252;59880;-76
2024/01/02 00:55:49;;;;;;;8.40;3.80;;;;;;;4.98;100.00;98296.05;109360;1252;65936;-75
2024/01/02 00:58:16;;;;;;;10.20;3.60;;;;;;;4.97;100.00;98299.29;109293;1254;61495;-75
2024/01/02 01:00:42;;;;;;;6.90;3.30;;;;;;;4.96;100.00;98304.83;109315;1254;65110;-75
2024/01/02 01:03:09;;;;;;;7.70;3.40;;;;;;;4.95;100.00;98306.97;109279;1254;58986;-75
2024/01/02 01:05:36;;;;;;;9.10;3.50;;;;;;;4.94;100.00;98308.45;109336;1254;58998;-75
2024/01/02 01:08:03;;;;;;;8.60;2.90;;;;;;;4.93;100.00;98312.39;109351;1254;65942;-75
2024/01/02 01:10:30;;;;;;;7.20;3.40;;;;;;;4.91;100.00;98315.29;109355;1254;59994;-76
2024/01/02 01:12:56;;;;;;;6.90;3.60;;;;;;;4.89;100.00;98312.41;109304;1254;64997;-75
2024/01/02 01:15:23;;;;;;;5.00;2.90;;;;;;;4.86;100.00;98312.57;109263;1254;59008;-75
2024/01/02 01:17:49;;;;;;;6.50;3.50;;;;;;;4.83;100.00;98313.27;109303;1254;59056;-75
2024/01/02 01:20:16;;;;;;;6.00;3.00;;;;;;;4.81;100.00;98311.58;109321;1254;66997;-75
2024/01/02 01:22:43;;;;;;;3.80;2.60;;;;;;;4.80;100.00;98308.68;109355;1254;69424;-75
2024/01/02 01:25:09;;;;;;;8.20;3.40;;;;;;;4.78;100.00;98308.58;109291;1254;65501;-75
2024/01/02 01:27:36;;;;;;;12.20;3.80;;;;;;;4.78;100.00;98307.92;109298;1254;59001;-75
2024/01/02 01:30:03;;;;;;;6.90;3.40;;;;;;;4.77;100.00;98306.20;109334;1253;59473;-75
2024/01/02 01:32:30;;;;;;;6.60;3.50;;;;;;;4.75;100.00;98307.86;109391;1252;65957;-75
2024/01/02 01:34:56;;;;;;;9.00;3.40;;;;;;;4.74;100.00;98307.95;109327;1252;61095;-75
2024/01/02 01:37:23;;;;;;;7.30;3.30;;;;;;;4.73;100.00;98305.69;109352;1252;65231;-75
2024/01/02 01:39:49;;;;;;;6.60;3.40;;;;;;;4.73;100.00;98311.66;109330;1254;59091;-75
2024/01/02 01:42:16;;;;;;;5.80;3.00;;;;;;;4.74;100.00;98310.06;109367;1252;58878;-75
2024/01/02 01:44:43;;;;;;;7.30;3.00;;;;;;;4.74;100.00;98306.17;109385;1252;65864;-75
2024/01/02 01:47:10;;;;;;;5.20;2.90;;;;;;;4.74;100.00;98306.00;109370;1252;61076;-75
2024/01/02 01:49:36;;;;;;;4.70;2.90;;;;;;;4.76;100.00;98300.48;109357;1252;65034;-75
2024/01/02 01:52:03;;;;;;;6.20;3.10;;;;;;;4.76;100.00;98301.34;109340;1252;59096;-75
2024/01/02 01:54:30;;;;;;;5.40;2.80;;;;;;;4.76;100.00;98303.41;109328;1252;59073;-75
2024/01/02 01:56:57;;;;;;;8.30;3.10;;;;;;;4.77;100.00;98305.16;109393;1252;67013;-74
2024/01/02 01:59:24;;;;;;;7.50;2.40;;;;;;;4.77;100.00;98307.05;109316;1252;61112;-75
2024/01/02 02:01:52;;;;;;;8.00;3.20;;;;;;;4.78;100.00;98306.69;109374;1252;63841;-76
2024/01/02 02:04:19;;;;;;;8.20;2.90;;;;;;;4.78;100.00;98304.39;109037;1252;59015;-76
2024/01/02 02:06:46;;;;;;;6.20;2.60;;;;;;;4.79;100.00;98309.45;109434;1252;60286;-75
2024/01/02 02:09:13;;;;;;;6.00;2.60;;;;;;;4.79;100.00;98306.80;109376;1252;65947;-76
2024/01/02 02:11:40;;;;;;;6.50;3.00;;;;;;;4.79;100.00;98306.61;109388;1252;61056;-75
2024/01/02 02:14:06;;;;;;;7.60;3.00;;;;;;;4.79;100.00;98308.55;109089;1252;65176;-75
2024/01/02 02:16:34;;;;;;;6.80;3.20;;;;;;;4.79;100.00;98306.95;109380;1252;59187;-75
2024/01/02 02:19:00;;;;;;;5.50;3.20;;;;;;;4.81;100.00;98305.48;109415;1252;58889;-75
2024/01/02 02:21:27;;;;;;;7.40;2.80;;;;;;;4.81;100.00;98300.16;109403;1252;66998;-76
2024/01/02 02:23:54;;;;;;;5.60;2.20;;;;;;;4.82;100.00;98297.48;109379;1252;60035;-76
2024/01/02 02:26:20;;;;;;;5.00;2.90;;;;;;;4.83;100.00;98297.42;109402;1252;64015;-75
2024/01/02 02:28:47;;;;;;;4.90;2.00;;;;;;;4.82;100.00;98299.75;109370;1252;58937;-75
2024/01/02 02:31:17;;;;;;;7.10;2.30;;;;;;;4.82;100.00;98300.62;109374;1252;59095;-75
2024/01/02 02:33:43;;;;;;;6.20;2.60;;;;;;;4.82;100.00;98301.66;109335;1252;67068;-75
2024/01/02 02:36:10;;;;;;;5.60;2.70;;;;;;;4.82;100.00;98302.95;109383;1252;61150;-75
2024/01/02 02:38:36;;;;;;;3.60;2.20;;;;;;;4.82;100.00;98302.75;109322;1252;65031;-74
2024/01/02 02:41:03;;;;;;;4.90;2.80;;;;;;;4.83;100.00;98301.99;109385;1252;59010;-75
2024/01/02 02:43:30;;;;;;;4.80;2.10;;;;;;;4.84;100.00;98304.42;109274;1252;59016;-74
2024/01/02 02:45:57;;;;;;;4.50;2.80;;;;;;;4.84;100.00;98306.52;109403;1252;66006;-76
2024/01/02 02:48:23;;;;;;;7.00;2.20;;;;;;;4.84;100.00;98304.23;109390;1252;60144;-74
2024/01/02 02:50:50;;;;;;;4.60;2.40;;;;;;;4.84;100.00;98301.94;109367;1252;65101;-75
2024/01/02 02:53:17;;;;;;;4.20;2.30;;;;;;;4.84;100.00;98298.58;109392;1252;59287;-75
2024/01/02 02:55:43;;;;;;;6.70;2.50;;;;;;;4.85;100.00;98301.18;109280;1252;58944;-75
2024/01/02 02:58:10;;;;;;;4.80;2.40;;;;;;;4.86;100.00;98305.58;109435;1252;67047;-75
2024/01/02 03:00:36;;;;;;;3.60;2.20;;;;;;;4.85;100.00;98303.66;109381;1254;61229;-75
2024/01/02 03:03:04;;;;;;;5.10;1.90;;;;;;;4.85;100.00;98302.23;109307;1252;65227;-76
2024/01/02 03:05:31;;;;;;;7.90;2.20;;;;;;;4.85;100.00;98297.67;109385;1252;59001;-75
2024/01/02 03:07:58;;;;;;;8.90;2.80;;;;;;;4.85;100.00;98293.99;109405;1252;58875;-76
2024/01/02 03:10:24;;;;;;;5.50;2.00;;;;;;;4.85;100.00;98290.29;109366;1253;67154;-75
2024/01/02 03:12:51;;;;;;;5.30;2.40;;;;;;;4.84;100.00;98290.50;107880;1252;1002517;-75
2024/01/02 03:15:17;;;;;;;7.60;2.60;;;;;;;4.83;100.00;98287.88;109354;1252;65026;-74
2024/01/02 03:17:44;;;;;;;5.00;2.40;;;;;;;4.84;100.00;98286.65;109308;1252;59003;-74
2024/01/02 03:20:10;;;;;;;6.60;1.90;;;;;;;4.83;100.00;98286.52;109416;1252;59134;-75
2024/01/02 03:22:37;;;;;;;7.60;2.40;;;;;;;4.83;100.00;98281.61;109409;1252;66948;-75
2024/01/02 03:25:04;;;;;;;6.90;2.50;;;;;;;4.82;100.00;98279.15;109416;1252;61325;-74
2024/01/02 03:27:31;;;;;;;5.80;2.10;;;;;;;4.82;100.00;98282.87;108605;1252;1002393;-74
2024/01/02 03:29:57;;;;;;;10.10;3.00;;;;;;;4.81;100.00;98282.05;109353;1252;59350;-75
2024/01/02 03:32:24;;;;;;;7.40;2.70;;;;;;;4.80;100.00;98282.98;109411;1252;59103;-75
2024/01/02 03:34:51;;;;;;;6.60;2.90;;;;;;;4.81;100.00;98285.06;109402;1252;67070;-74
2024/01/02 03:37:17;;;;;;;4.10;2.10;;;;;;;4.81;100.00;98283.08;109436;1252;60248;-75
2024/01/02 03:39:44;;;;;;;4.90;2.20;;;;;;;4.81;100.00;98282.77;109332;1252;64009;-74
2024/01/02 03:42:11;;;;;;;7.70;2.70;;;;;;;4.81;100.00;98285.05;109340;1253;58967;-74
2024/01/02 03:44:37;;;;;;;4.90;2.20;;;;;;;4.81;100.00;98286.25;109389;1252;59027;-75
2024/01/02 03:47:04;;;;;;;3.80;2.10;;;;;;;4.82;100.00;98287.46;109384;1252;67034;-74
2024/01/02 03:49:30;;;;;;;7.70;3.10;;;;;;;4.83;100.00;98293.23;109385;1252;59981;-74
2024/01/02 03:51:57;;;;;;;7.70;2.70;;;;;;;4.82;100.00;98297.80;109372;1252;65277;-74
2024/01/02 03:54:23;;;;;;;6.00;2.50;;;;;;;4.82;100.00;98298.00;109379;1252;58971;-74
2024/01/02 03:56:50;;;;;;;6.50;2.60;;;;;;;4.82;100.00;98300.09;109157;1252;59112;-74
2024/01/02 03:59:17;;;;;;;4.90;2.30;;;;;;;4.83;100.00;98300.42;109402;1252;65966;-75
2024/01/02 04:01:44;;;;;;;6.00;2.50;;;;;;;4.83;100.00;98300.55;109390;1252;60188;-75
2024/01/02 04:04:11;;;;;;;9.50;2.80;;;;;;;4.83;100.00;98302.17;109372;1252;65084;-74
2024/01/02 04:06:37;;;;;;;5.40;2.60;;;;;;;4.83;100.00;98300.92;109354;1252;58998;-74
2024/01/02 04:09:04;;;;;;;4.70;3.00;;;;;;;4.82;100.00;98304.13;109384;1252;59016;-74
2024/01/02 04:11:30;;;;;;;3.90;2.20;;;;;;;4.83;100.00;98303.93;109384;1252;67021;-74
2024/01/02 04:13:57;;;;;;;10.10;3.30;;;;;;;4.82;100.00;98302.21;109300;1252;61103;-75
2024/01/02 04:16:23;;;;;;;7.60;2.70;;;;;;;4.81;100.00;98303.48;109235;1252;65154;-75
2024/01/02 04:18:50;;;;;;;7.30;2.60;;;;;;;4.80;100.00;98303.37;109242;1252;59319;-75
2024/01/02 04:21:17;;;;;;;7.70;3.00;;;;;;;4.78;100.00;98301.06;109322;1252;59037;-75
2024/01/02 04:23:43;;;;;;;6.90;2.70;;;;;;;4.77;100.00;98301.96;109417;1252;67029;-75
2024/01/02 04:26:10;;;;;;;4.50;2.30;;;;;;;4.76;100.00;98305.55;109398;1252;60822;-75
2024/01/02 04:28:36;;;;;;;8.20;3.50;;;;;;;4.75;100.00;98301.23;109400;1252;65059;-75
2024/01/02 04:31:03;;;;;;;6.90;3.00;;;;;;;4.75;100.00;98299.98;109416;1252;59240;-75
2024/01/02 04:33:30;;;;;;;7.40;3.00;;;;;;;4.74;100.00;98300.36;109421;1252;59668;-75
2024/01/02 04:35:56;;;;;;;5.70;2.40;;;;;;;4.73;100.00;98303.92;109405;1252;67446;-75
2024/01/02 04:38:23;;;;;;;9.40;2.50;;;;;;;4.72;100.00;98304.69;109413;1252;61009;-74
2024/01/02 04:40:50;;;;;;;7.70;2.40;;;;;;;4.72;100.00;98301.40;109354;1254;65081;-75
2024/01/02 04:43:16;;;;;;;8.50;3.10;;;;;;;4.70;100.00;98303.05;109376;1252;58936;-75
2024/01/02 04:45:43;;;;;;;10.00;2.50;;;;;;;4.69;100.00;98299.08;109380;1252;59216;-75
2024/01/02 04:48:10;;;;;;;8.40;2.60;;;;;;;4.69;100.00;98299.62;109406;1252;67365;-75
2024/01/02 04:50:36;;;;;;;5.40;2.50;;;;;;;4.68;100.00;98297.93;109399;1253;61110;-75
2024/01/02 04:53:03;;;;;;;6.10;2.60;;;;;;;4.66;100.00;98294.99;109403;1252;65572;-75
2024/01/02 04:55:29;;;;;;;6.00;2.60;;;;;;;4.64;100.00;98295.11;109421;1252;58966;-75
2024/01/02 04:57:56;;;;;;;5.80;3.00;;;;;;;4.63;100.00;98295.69;109317;1252;59038;-75
2024/01/02 05:00:23;;;;;;;7.60;3.10;;;;;;;4.61;100.00;98296.88;109391;1255;67001;-75
2024/01/02 05:02:49;;;;;;;6.10;2.40;;;;;;;4.60;100.00;98298.33;109372;1252;61216;-74
2024/01/02 05:05:16;;;;;;;6.60;2.60;;;;;;;4.59;100.00;98294.70;109402;1252;64988;-73
2024/01/02 05:07:42;;;;;;;12.10;3.20;;;;;;;4.57;100.00;98295.14;109372;1252;59014;-76
2024/01/02 05:10:09;;;;;;;8.20;3.30;;;;;;;4.55;100.00;98295.59;109436;1252;59043;-76
2024/01/02 05:12:36;;;;;;;7.10;2.70;;;;;;;4.54;100.00;98289.34;109373;1252;67170;-75
2024/01/02 05:15:02;;;;;;;7.00;2.60;;;;;;;4.52;100.00;98289.44;109384;1252;60041;-76
2024/01/02 05:17:29;;;;;;;5.40;2.30;;;;;;;4.49;100.00;98289.42;109351;1252;65312;-75
2024/01/02 05:19:56;;;;;;;6.50;2.50;;;;;;;4.44;100.00;98285.80;109361;1252;59004;-75
2024/01/02 05:22:22;;;;;;;8.00;2.50;;;;;;;4.39;100.00;98285.70;109375;1252;58978;-75
2024/01/02 05:24:49;;;;;;;4.70;2.30;;;;;;;4.35;100.00;98289.81;109404;1252;67022;-74
2024/01/02 05:27:15;;;;;;;8.00;2.40;;;;;;;4.28;100.00;98291.23;109378;1253;59800;-75
2024/01/02 05:29:42;;;;;;;7.10;2.70;;;;;;;4.21;100.00;98288.10;109126;1252;64213;-75
2024/01/02 05:32:09;;;;;;;6.50;2.70;;;;;;;4.14;100.00;98292.65;109371;1253;58952;-75
2024/01/02 05:34:35;;;;;;;4.60;2.10;;;;;;;4.08;100.00;98290.35;109373;1252;59098;-75
2024/01/02 05:37:05;;;;;;;10.70;3.10;;;;;;;4.00;100.00;98289.16;109398;1252;64761;-74
2024/01/02 05:39:31;;;;;;;7.60;2.70;;;;;;;3.92;100.00;98285.87;109389;1252;61059;-75
2024/01/02 05:41:58;;;;;;;8.00;2.30;;;;;;;3.85;100.00;98287.48;109433;1252;63990;-74
2024/01/02 05:44:24;;;;;;;8.20;2.50;;;;;;;3.76;100.00;98288.81;108613;1252;1002659;-76
2024/01/02 05:46:51;;;;;;;8.30;2.70;;;;;;;3.70;100.00;98290.00;109425;1252;59022;-75
2024/01/02 05:49:17;;;;;;;8.20;2.30;;;;;;;3.64;100.00;98287.51;109408;1252;67138;-74
2024/01/02 05:51:44;;;;;;;8.60;2.70;;;;;;;3.58;100.00;98289.20;108376;1252;1002825;-75
2024/01/02 05:54:11;;;;;;;7.00;2.70;;;;;;;3.49;100.00;98291.38;109410;1252;64120;-75
2024/01/02 05:56:37;;;;;;;9.30;2.80;;;;;;;3.42;100.00;98288.75;109389;1252;59324;-75
2024/01/02 05:59:04;;;;;;;10.50;3.40;;;;;;;3.37;100.00;98287.44;109444;1252;59438;-76
2024/01/02 06:01:30;;;;;;;7.00;2.40;;;;;;;3.30;100.00;98286.89;109466;1254;67118;-75
2024/01/02 06:03:57;;;;;;;6.00;2.70;;;;;;;3.23;100.00;98285.85;109452;1252;61148;-74
2024/01/02 06:06:23;;;;;;;8.90;2.60;;;;;;;3.19;100.00;98288.15;109480;1252;65062;-74
2024/01/02 06:08:50;;;;;;;7.10;2.30;;;;;;;3.15;100.00;98285.16;109244;1252;58980;-75
2024/01/02 06:11:16;;;;;;;6.60;2.70;;;;;;;3.13;100.00;98290.89;109457;1253;59324;-75
2024/01/02 06:13:43;;;;;;;6.20;2.60;;;;;;;3.09;100.00;98291.23;109531;1252;67010;-75
2024/01/02 06:16:10;;;;;;;10.60;2.90;;;;;;;3.05;100.00;98293.33;109253;1252;60214;-74
2024/01/02 06:18:37;;;;;;;7.20;2.30;;;;;;;3.03;100.00;98290.99;109440;1253;65376;-75
2024/01/02 06:21:04;;;;;;;8.00;2.60;;;;;;;3.01;100.00;98292.83;109419;1252;59004;-75
2024/01/02 06:23:34;;;;;;;6.70;2.50;;;;;;;3.00;100.00;98292.02;109485;1252;59072;-77
2024/01/02 06:26:01;;;;;;;8.70;3.50;;;;;;;2.98;100.00;98292.80;109483;1253;67155;-76
2024/01/02 06:28:28;;;;;;;6.80;3.60;;;;;;;2.96;100.00;98294.15;108741;1252;1002362;-76
2024/01/02 06:30:55;;;;;;;10.90;3.30;;;;;;;2.93;100.00;98293.61;109488;1252;65167;-74
2024/01/02 06:33:22;;;;;;;9.40;2.90;;;;;;;2.89;100.00;98297.78;109474;1252;58940;-75
2024/01/02 06:35:49;;;;;;;10.10;3.30;;;;;;;2.86;100.00;98296.16;109494;1254;59081;-75
2024/01/02 06:38:16;;;;;;;7.40;3.10;;;;;;;2.84;100.00;98297.68;109465;1252;66944;-76
2024/01/02 06:40:43;;;;;;;11.40;3.80;;;;;;;2.83;100.00;98296.67;109249;1256;61083;-76
2024/01/02 06:43:09;;;;;;;12.90;3.30;;;;;;;2.83;100.00;98295.42;109473;1254;65290;-75
2024/01/02 06:45:36;;;;;;;7.70;3.10;;;;;;;2.84;100.00;98292.60;109425;1255;59001;-75
2024/01/02 06:48:03;;;;;;;7.90;3.40;;;;;;;2.83;100.00;98291.39;109435;1252;59044;-75
2024/01/02 06:50:30;;;;;;;9.50;3.70;;;;;;;2.82;100.00;98287.09;109523;1252;66020;-76
2024/01/02 06:52:56;;;;;;;9.60;4.30;;;;;;;2.80;100.00;98286.96;109476;1252;59019;-75
2024/01/02 06:55:23;;;;;;;8.80;3.80;;;;;;;2.79;100.00;98285.29;109515;1253;64218;-75
2024/01/02 06:57:49;;;;;;;9.30;3.30;;;;;;;2.76;100.00;98285.58;109500;1252;58948;-75
2024/01/02 07:00:16;;;;;;;9.80;4.20;;;;;;;2.75;100.00;98287.39;109494;1252;59017;-76
2024/01/02 07:02:43;;;;;;;13.10;4.70;;;;;;;2.75;100.00;98291.05;109333;1252;67166;-76
2024/01/02 07:05:14;;;;;;;8.20;4.00;;;;;;;2.76;100.00;98294.01;109449;1254;61064;-75
2024/01/02 07:07:41;;;;;;;9.30;5.40;;;;;;;2.77;100.00;98297.67;109244;1252;65029;-76
2024/01/02 07:10:08;;;;;;;11.80;6.10;;;;;;;2.78;100.00;98296.19;109455;1253;58999;-76
2024/01/02 07:12:34;;;;;;;12.70;5.60;;;;;;;2.80;100.00;98297.35;109346;1253;59036;-75
2024/01/02 07:15:02;;;;;;;14.10;5.80;;;;;;;2.81;100.00;98295.75;109503;1252;65641;-75
2024/01/02 07:17:28;;;;;;;9.50;4.90;;;;;;;2.82;100.00;98293.40;109520;1253;60235;-76
2024/01/02 07:19:55;;;;;;;12.00;4.90;;;;;;;2.83;100.00;98292.45;109313;1252;62901;-75
2024/01/02 07:22:21;;;;;;;13.00;5.10;;;;;;;2.85;100.00;98292.70;109484;1253;58941;-76
2024/01/02 07:24:48;;;;;;;10.60;4.70;;;;;;;2.87;100.00;98292.45;109490;1253;59043;-75
2024/01/02 07:27:14;;;;;;;13.50;5.60;;;;;;;2.91;100.00;98288.40;109510;1252;67017;-76
2024/01/02 07:29:41;;;;;;;11.20;4.60;;;;;;;2.94;100.00;98285.42;109496;1252;61054;-76
2024/01/02 07:32:08;;;;;;;13.10;4.80;;;;;;;2.99;100.00;98280.13;109461;1253;65028;-76
2024/01/02 07:34:34;;;;;;;12.00;4.50;;;;;;;3.04;100.00;98274.77;109453;1252;58949;-76
2024/01/02 07:37:01;;;;;;;9.40;4.80;;;;;;;3.11;100.00;98273.60;109476;1252;58998;-76
2024/01/02 07:39:27;;;;;;;10.90;5.70;;;;;;;3.18;100.00;98269.77;109556;1254;67087;-75
2024/01/02 07:41:54;;;;;;;11.60;5.90;;;;;;;3.23;100.00;98269.13;109432;1252;60760;-76
2024/01/02 07:44:22;;;;;;;17.70;6.80;;;;;;;3.29;100.00;98265.85;109427;1252;65036;-75
2024/01/02 07:46:48;;;;;;;13.50;6.30;;;;;;;3.37;100.00;98265.98;109381;1253;59024;-75
2024/01/02 07:49:16;;;;;;;14.40;6.20;;;;;;;3.45;100.00;98270.88;109332;1252;59036;-75
2024/01/02 07:51:43;;;;;;;15.80;6.90;;;;;;;3.51;100.00;98272.31;109450;1252;65978;-75
2024/01/02 07:54:09;;;;;;;15.90;7.60;;;;;;;3.58;100.00;98269.52;109388;1252;61088;-75
2024/01/02 07:56:36;;;;;;;17.20;9.20;;;;;;;3.64;100.00;98266.79;109438;1252;65087;-76
2024/01/02 07:59:03;;;;;;;20.70;10.50;;;;;;;3.69;100.00;98267.04;109439;1252;58996;-75
2024/01/02 08:01:29;;;;;;;21.50;10.60;;;;;;;3.74;100.00;98264.50;109416;1252;59071;-76
2024/01/02 08:03:56;;;;;;;23.20;11.70;;;;;;;3.78;100.00;98264.81;109415;1252;66961;-76
2024/01/02 08:06:22;;;;;;;24.90;11.50;;;;;;;3.81;100.00;98263.95;109445;1252;61465;-76
2024/01/02 08:08:49;;;;;;;23.70;12.40;;;;;;;3.85;100.00;98257.98;109422;1252;64183;-75
2024/01/02 08:11:16;;;;;;;22.60;11.70;;;;;;;3.89;100.00;98258.11;109400;1252;59220;-76
2024/01/02 08:13:42;;;;;;;19.40;11.70;;;;;;;3.94;100.00;98259.24;109261;1252;59099;-75
2024/01/02 08:16:09;;;;;;;19.10;10.80;;;;;;;4.00;100.00;98252.10;109449;1252;66979;-76
2024/01/02 08:18:40;;;;;;;17.30;10.20;;;;;;;4.06;100.00;98245.61;109450;1252;60850;-76
2024/01/02 08:21:08;;;;;;;18.70;10.80;;;;;;;4.13;100.00;98241.73;109422;1252;64133;-76
2024/01/02 08:23:38;;;;;;;20.50;10.60;;;;;;;4.20;100.00;98245.41;109233;1252;59320;-76
2024/01/02 08:26:14;;;;;;;22.30;12.20;;;;;;;4.26;100.00;98241.58;109460;1252;59347;-76
2024/01/02 08:28:41;;;;;;;22.10;13.60;;;;;;;4.32;100.00;98241.41;109426;1252;66956;-76
2024/01/02 08:31:08;;;;;;;28.90;15.30;;;;;;;4.36;100.00;98237.33;109345;1252;59078;-77
2024/01/02 08:33:34;;;;;;;31.20;17.50;;;;;;;4.41;100.00;98234.63;109221;1253;65246;-76
2024/01/02 08:36:01;;;;;;;30.20;18.20;;;;;;;4.45;100.00;98231.76;109237;1253;59011;-76
2024/01/02 08:38:28;;;;;;;34.50;18.20;;;;;;;4.51;100.00;98226.13;109465;1252;59165;-76
2024/01/02 08:40:54;;;;;;;29.70;18.80;;;;;;;4.61;100.00;98223.11;109437;1252;67070;-76
2024/01/02 08:43:21;;;;;;;32.00;18.00;;;;;;;4.71;100.00;98220.98;109441;1252;60231;-75
2024/01/02 08:45:48;;;;;;;29.10;17.30;;;;;;;4.80;100.00;98219.95;109447;1252;64136;-75
2024/01/02 08:48:14;;;;;;;31.70;17.30;;;;;;;4.90;100.00;98217.66;109403;1252;59338;-75
2024/01/02 08:50:42;;;;;;;31.00;16.40;;;;;;;4.98;100.00;98216.33;109449;1255;59028;-75
2024/01/02 08:53:10;;;;;;;28.30;16.30;;;;;;;5.04;100.00;98211.92;109438;1252;67202;-75
2024/01/02 08:55:37;;;;;;;27.50;15.30;;;;;;;5.12;100.00;98214.81;109419;1252;59769;-76
2024/01/02 08:58:04;;;;;;;28.20;16.80;;;;;;;5.22;100.00;98221.96;109443;1252;65581;-75
2024/01/02 09:00:32;;;;;;;25.10;14.80;;;;;;;5.32;100.00;98220.03;109133;1252;58940;-76
2024/01/02 09:03:02;;;;;;;26.90;15.30;;;;;;;5.40;100.00;98218.67;109419;1252;59052;-75
2024/01/02 09:05:29;;;;;;;28.90;14.20;;;;;;;5.48;100.00;98216.77;109168;1252;66054;-77
2024/01/02 09:07:56;;;;;;;28.00;14.00;;;;;;;5.57;100.00;98215.02;109430;1252;61255;-75
2024/01/02 09:10:22;;;;;;;25.70;13.60;;;;;;;5.65;100.00;98216.83;109401;1253;65243;-76
2024/01/02 09:12:49;;;;;;;21.10;12.70;;;;;;;5.72;100.00;98218.92;109425;1252;59084;-75
2024/01/02 09:15:16;;;;;;;25.40;13.10;;;;;;;5.80;100.00;98222.27;109445;1252;59163;-75
2024/01/02 09:17:42;;;;;;;28.80;12.70;;;;;;;5.89;100.00;98221.39;109449;1252;67037;-76
2024/01/02 09:20:11;;;;;;;23.40;11.70;;;;;;;5.98;100.00;98220.36;109450;1252;61142;-75
2024/01/02 09:22:38;;;;;;;21.50;10.80;;;;;;;6.04;100.00;98217.92;109422;1252;65051;-75
2024/01/02 09:25:05;;;;;;;21.60;10.40;;;;;;;6.08;100.00;98218.00;109429;1252;58967;-76
2024/01/02 09:27:35;;;;;;;18.10;10.40;;;;;;;6.13;100.00;98214.48;109233;1252;59008;-76
2024/01/02 09:30:04;;;;;;;18.40;9.30;;;;;;;6.19;100.00;98214.66;109184;1252;64993;-75
2024/01/02 09:32:32;;;;;;;18.30;9.30;;;;;;;6.25;100.00;98211.48;109169;1252;60999;-76
2024/01/02 09:34:58;;;;;;;15.20;8.20;;;;;;;6.31;100.00;98207.03;109379;1252;65102;-76
2024/01/02 09:37:25;;;;;;;14.00;7.70;;;;;;;6.37;100.00;98201.39;109403;1252;59313;-76
2024/01/02 09:39:53;;;;;;;15.60;7.90;;;;;;;6.42;100.00;98195.59;109203;1253;59067;-76
2024/01/02 09:42:34;;;;;;;12.50;7.70;;;;;;;6.49;100.00;98191.98;109404;1252;66070;-76
2024/01/02 09:45:24;;;;;;;12.70;7.20;;;;;;;6.56;100.00;98190.65;109238;1252;61270;-75
2024/01/02 09:48:07;;;;;;;13.30;6.70;;;;;;;6.64;100.00;98184.69;109209;1252;65152;-76
2024/01/02 09:50:47;;;;;;;14.00;7.00;;;;;;;6.71;100.00;98178.59;109395;1252;58997;-76
2024/01/02 09:53:42;;;;;;;13.10;6.20;;;;;;;6.77;100.00;98173.08;109242;1252;58875;-75
2024/01/02 09:56:22;;;;;;;14.70;6.50;;;;;;;6.81;100.00;98167.01;109412;1253;65982;-75
2024/01/02 09:58:51;;;;;;;;;;;;;;;6.85;100.00;98160.02;109424;1252;60031;-76
2024/01/02 10:01:38;;;;;;;12.60;6.40;;;;;;;6.89;100.00;98151.14;109407;1253;65182;-75
2024/01/02 10:04:22;;;;;;;17.00;6.90;;;;;;;6.94;100.00;98148.29;109269;1252;59023;-76
2024/01/02 10:07:13;;;;;;;11.90;7.20;;;;;;;7.01;100.00;98144.66;109232;1258;59053;-76
2024/01/02 10:10:03;;;;;;;13.50;6.40;;;;;;;7.07;100.00;98138.27;109405;1253;65909;-75
2024/01/02 10:12:55;;;;;;;14.90;7.40;;;;;;;7.11;100.00;98129.89;109392;1252;61053;-75
2024/01/02 10:15:22;;;;;;;17.30;7.70;;;;;;;7.18;100.00;98129.76;109392;1252;65093;-76
2024/01/02 10:17:57;;;;;;;15.30;6.90;;;;;;;7.24;100.00;98123.17;109393;1253;59010;-75
2024/01/02 10:20:38;;;;;;;10.10;6.30;;;;;;;7.30;100.00;98116.98;109454;1252;59009;-75
2024/01/02 10:23:17;;;;;;;15.90;7.60;;;;;;;7.35;100.00;98110.58;109249;1253;67110;-75
2024/01/02 10:25:50;;;;;;;16.20;6.70;;;;;;;7.44;100.00;98109.46;109407;1252;60981;-76
2024/01/02 10:28:24;;;;;;;10.10;5.60;;;;;;;7.51;100.00;98103.69;109393;1252;65058;-76
2024/01/02 10:31:04;;;;;;;11.60;5.30;;;;;;;7.58;100.00;98098.08;109200;1252;59531;-76
2024/01/02 10:33:37;;;;;;;;;;;;;;;7.64;100.00;98093.42;109241;1252;58967;-76
2024/01/02 10:36:08;;;;;;;10.80;4.20;;;;;;;7.67;100.00;98087.54;109403;1253;67221;-76
2024/01/02 10:38:55;;;;;;;12.80;5.40;;;;;;;7.74;100.00;98085.86;109410;1253;61154;-76
2024/01/02 10:41:24;;;;;;;11.20;6.20;;;;;;;7.80;100.00;98081.31;109447;1252;65146;-75
2024/01/02 10:44:09;;;;;;;15.80;7.50;;;;;;;7.84;100.00;98075.40;109423;1252;59045;-76
2024/01/02 10:46:50;;;;;;;14.80;7.30;;;;;;;7.86;100.00;98065.66;109418;1252;58917;-76
2024/01/02 10:49:26;;;;;;;14.50;6.70;;;;;;;7.91;100.00;98057.04;109436;1253;67143;-76
2024/01/02 10:52:06;;;;;;;12.70;6.20;;;;;;;7.91;100.00;98053.30;109432;1253;61081;-76
2024/01/02 10:54:53;;;;;;;10.70;5.50;;;;;;;7.89;100.00;98045.14;109388;1254;64116;-76
2024/01/02 10:57:43;;;;;;;13.10;5.70;;;;;;;7.89;100.00;98035.23;109415;1254;59008;-74
2024/01/02 11:00:22;;;;;;;12.30;5.10;;;;;;;7.88;100.00;98028.20;109461;1254;59207;-75
2024/01/02 11:02:57;;;;;;;11.20;5.30;;;;;;;7.86;100.00;98022.55;109223;1253;67101;-77
2024/01/02 11:05:31;;;;;;;8.30;4.70;;;;;;;7.85;100.00;98014.64;109424;1252;60909;-76
2024/01/02 11:08:43;;;;;;;10.20;4.80;;;;;;;7.87;100.00;98010.05;109422;1253;65183;-75
2024/01/02 11:11:11;;;;;;;10.70;5.30;;;;;;;7.89;100.00;98011.35;109303;1253;59326;-75
2024/01/02 11:13:41;;;;;;;10.60;5.20;;;;;;;7.94;100.00;98008.53;109344;1253;59136;-76
2024/01/02 11:16:16;;;;;;;10.40;4.30;;;;;;;8.01;100.00;98000.81;109416;1252;67229;-75
2024/01/02 11:18:57;;;;;;;7.60;4.50;;;;;;;8.08;100.00;97994.80;109424;1256;61274;-75
2024/01/02 11:21:58;;;;;;;8.10;4.10;;;;;;;8.13;100.00;97988.58;109400;1252;65273;-77
2024/01/02 11:24:30;;;;;;;9.10;4.00;;;;;;;8.16;100.00;97978.61;109275;1252;59019;-75
2024/01/02 11:27:00;;;;;;;9.30;4.00;;;;;;;8.18;100.00;97977.24;109150;1259;59164;-77
2024/01/02 11:29:28;;;;;;;;;;;;;;;8.20;100.00;97974.45;109480;1253;66757;-76